createdAt,value
2019-01-04T00:03:28.201Z,102253.80
2019-01-04T00:07:35.059Z,102255.88
2019-01-04T00:17:23.389Z,102266.11
2019-01-04T00:21:30.586Z,102253.61
2019-01-04T00:25:38.518Z,102253.50
2019-01-04T00:29:45.382Z,102254.33
2019-01-04T00:33:52.295Z,102250.00
2019-01-04T00:37:59.377Z,102237.39
2019-01-04T00:42:06.233Z,102234.30
2019-01-04T00:46:15.174Z,102237.64
2019-01-04T00:50:22.091Z,102237.75
2019-01-04T00:54:29.086Z,102237.22
2019-01-04T00:59:38.032Z,102231.95
2019-01-04T01:04:45.533Z,102229.92
2019-01-04T01:09:38.211Z,102231.23
2019-01-04T01:14:43.247Z,102242.16
2019-01-04T01:19:46.042Z,102237.98
2019-01-04T01:25:26.771Z,102234.91
2019-01-04T01:30:26.422Z,102241.79
2019-01-04T01:35:27.716Z,102240.05
2019-01-04T01:40:29.697Z,102243.11
2019-01-04T01:46:12.840Z,102252.27
2019-01-04T01:51:21.475Z,102260.13
2019-01-04T01:55:28.407Z,102264.37
2019-01-04T01:59:35.696Z,102269.08
2019-01-04T02:03:42.573Z,102275.98
2019-01-04T02:07:49.615Z,102274.30
2019-01-04T02:11:57.095Z,102266.84
2019-01-04T02:16:04.404Z,102263.46
2019-01-04T02:20:11.509Z,102269.12
2019-01-04T02:24:18.392Z,102255.72
2019-01-04T02:28:25.432Z,102250.45
2019-01-04T02:32:32.440Z,102247.84
2019-01-04T02:36:39.645Z,102240.42
2019-01-04T02:40:46.924Z,102229.11
2019-01-04T02:44:53.756Z,102223.02
2019-01-04T02:49:00.633Z,102231.15
2019-01-04T02:53:10.351Z,102224.11
2019-01-04T02:57:17.238Z,102237.03
2019-01-04T03:01:26.224Z,102245.67
2019-01-04T03:05:33.280Z,102244.36
2019-01-04T03:09:40.287Z,102254.34
2019-01-04T03:13:47.148Z,102248.49
2019-01-04T03:17:54.083Z,102251.48
2019-01-04T03:22:02.077Z,102241.50
2019-01-04T03:26:09.086Z,102237.69
2019-01-04T03:30:16.531Z,102235.99
2019-01-04T03:34:23.420Z,102219.45
2019-01-04T03:38:30.361Z,102224.30
2019-01-04T03:42:39.823Z,102219.98
2019-01-04T03:46:46.885Z,102215.54
2019-01-04T03:50:53.874Z,102200.73
2019-01-04T03:55:01.155Z,102201.61
2019-01-04T03:59:08.183Z,102206.91
2019-01-04T04:03:17.684Z,102196.63
2019-01-04T04:07:24.618Z,102193.93
2019-01-04T04:11:31.496Z,102189.66
2019-01-04T04:15:38.501Z,102194.97
2019-01-04T04:19:48.317Z,102197.14
2019-01-04T04:23:55.197Z,102198.84
2019-01-04T04:28:02.089Z,102201.05
2019-01-04T04:32:09.311Z,102208.38
2019-01-04T04:36:17.204Z,102204.89
2019-01-04T04:40:24.209Z,102213.00
2019-01-04T04:44:31.251Z,102210.88
2019-01-04T04:48:40.020Z,102218.19
2019-01-04T04:52:47.119Z,102207.33
2019-01-04T04:56:54.566Z,102201.31
2019-01-04T05:01:01.455Z,102193.47
2019-01-04T05:05:08.478Z,102194.30
2019-01-04T05:09:15.396Z,102186.49
2019-01-04T05:13:22.285Z,102188.28
2019-01-04T05:17:30.269Z,102195.55
2019-01-04T05:21:37.545Z,102193.58
2019-01-04T05:25:44.477Z,102193.53
2019-01-04T05:29:51.336Z,102182.73
2019-01-04T05:33:58.162Z,102189.84
2019-01-04T05:38:05.200Z,102182.91
2019-01-04T05:42:12.251Z,102180.28
2019-01-04T05:46:19.133Z,102166.87
2019-01-04T05:50:26.201Z,102166.52
2019-01-04T05:54:33.283Z,102181.61
2019-01-04T05:58:40.277Z,102179.88
2019-01-04T06:02:47.276Z,102180.64
2019-01-04T06:06:54.261Z,102186.82
2019-01-04T06:11:01.247Z,102189.36
2019-01-04T06:15:08.264Z,102191.12
2019-01-04T06:19:15.136Z,102190.33
2019-01-04T06:23:24.734Z,102190.39
2019-01-04T06:27:31.797Z,102189.56
2019-01-04T06:31:39.387Z,102174.83
2019-01-04T06:35:46.365Z,102194.31
2019-01-04T06:39:53.404Z,102200.32
2019-01-04T06:44:00.496Z,102207.79
2019-01-04T06:48:07.590Z,102208.91
2019-01-04T06:52:14.639Z,102216.37
2019-01-04T06:56:21.566Z,102230.22
2019-01-04T07:00:28.649Z,102218.19
2019-01-04T07:04:36.394Z,102224.20
2019-01-04T07:08:43.416Z,102228.11
2019-01-04T07:12:50.419Z,102217.27
2019-01-04T07:17:00.362Z,102210.83
2019-01-04T07:21:07.563Z,102213.85
2019-01-04T07:25:14.591Z,102209.87
2019-01-04T07:29:21.471Z,102214.66
2019-01-04T07:33:28.497Z,102218.13
2019-01-04T07:37:35.353Z,102224.13
2019-01-04T07:41:43.306Z,102237.95
2019-01-04T07:45:50.398Z,102237.50
2019-01-04T07:49:57.403Z,102244.48
2019-01-04T07:54:07.343Z,102230.37
2019-01-04T07:58:14.406Z,102234.72
2019-01-04T08:02:41.432Z,102240.06
2019-01-04T08:06:48.353Z,102251.66
2019-01-04T08:10:55.355Z,102251.59
2019-01-04T08:15:03.573Z,102252.97
2019-01-04T08:19:11.674Z,102255.94
2019-01-04T08:23:18.755Z,102249.52
2019-01-04T08:27:25.883Z,102264.14
2019-01-04T08:31:32.865Z,102267.13
2019-01-04T08:35:39.932Z,102260.67
2019-01-04T08:39:47.784Z,102272.91
2019-01-04T08:43:56.733Z,102275.45
2019-01-04T08:48:05.747Z,102263.73
2019-01-04T08:52:12.667Z,102263.26
2019-01-04T08:56:19.709Z,102256.61
2019-01-04T09:00:26.931Z,102244.21
2019-01-04T09:04:35.747Z,102254.49
2019-01-04T09:08:42.676Z,102254.27
2019-01-04T09:12:49.630Z,102242.44
2019-01-04T09:16:58.023Z,102223.70
2019-01-04T09:21:04.940Z,102220.73
2019-01-04T09:25:14.708Z,102215.17
2019-01-04T09:29:21.692Z,102212.16
2019-01-04T09:33:30.129Z,102211.31
2019-01-04T09:37:37.201Z,102211.34
2019-01-04T09:42:02.264Z,102205.11
2019-01-04T09:46:09.169Z,102207.56
2019-01-04T09:50:16.738Z,102196.31
2019-01-04T09:54:23.821Z,102196.39
2019-01-04T09:58:31.218Z,102208.84
2019-01-04T10:02:38.162Z,102196.66
2019-01-04T10:06:45.191Z,102181.14
2019-01-04T10:10:52.281Z,102181.49
2019-01-04T10:14:59.616Z,102169.13
2019-01-04T10:19:07.349Z,102152.63
2019-01-04T10:23:14.310Z,102130.17
2019-01-04T10:27:22.604Z,102118.98
2019-01-04T10:31:29.595Z,102121.75
2019-01-04T10:35:38.017Z,102109.84
2019-01-04T10:39:44.820Z,102117.05
2019-01-04T10:43:51.738Z,102106.59
2019-01-04T10:47:58.736Z,102080.94
2019-01-04T10:52:05.760Z,102070.92
2019-01-04T10:56:12.683Z,102066.93
2019-01-04T11:00:19.612Z,102048.64
2019-01-04T11:04:26.490Z,102048.44
2019-01-04T11:08:33.483Z,102030.59
2019-01-04T11:12:40.507Z,102041.42
2019-01-04T11:16:47.534Z,102032.34
2019-01-04T11:20:55.266Z,102012.84
2019-01-04T11:25:53.734Z,102016.03
2019-01-04T11:30:33.937Z,102008.80
2019-01-04T11:35:48.785Z,102003.56
2019-01-04T11:40:55.826Z,102004.51
2019-01-04T11:45:23.941Z,101996.98
2019-01-04T11:50:21.702Z,102002.71
2019-01-04T11:54:33.202Z,101993.94
2019-01-04T11:58:40.455Z,101981.11
2019-01-04T12:02:47.545Z,101971.41
2019-01-04T12:06:54.794Z,101972.78
2019-01-04T12:11:01.672Z,101967.22
2019-01-04T12:15:09.070Z,101973.05
2019-01-04T12:19:16.063Z,101972.33
2019-01-04T12:23:23.091Z,101982.23
2019-01-04T12:27:30.125Z,101970.73
2019-01-04T12:31:37.140Z,101958.42
2019-01-04T12:35:46.560Z,101967.56
2019-01-04T12:39:53.457Z,101958.99
2019-01-04T12:44:01.473Z,101963.78
2019-01-04T12:48:10.126Z,101947.73
2019-01-04T12:52:17.062Z,101966.30
2019-01-04T12:56:25.588Z,101968.50
2019-01-04T13:00:32.577Z,101957.97
2019-01-04T13:04:39.606Z,101944.98
2019-01-04T13:08:46.657Z,101938.80
2019-01-04T13:12:53.586Z,101944.27
2019-01-04T13:17:01.676Z,101937.58
2019-01-04T13:21:09.086Z,101913.89
2019-01-04T13:25:16.022Z,101912.14
2019-01-04T13:29:25.216Z,101910.22
2019-01-04T13:33:32.188Z,101898.91
2019-01-04T13:37:39.070Z,101898.52
2019-01-04T13:41:46.014Z,101889.64
2019-01-04T13:45:55.593Z,101872.98
2019-01-04T13:50:02.531Z,101858.06
2019-01-04T13:54:09.368Z,101869.34
2019-01-04T13:58:16.236Z,101866.88
2019-01-04T14:02:23.078Z,101851.47
2019-01-04T14:06:30.058Z,101835.41
2019-01-04T14:10:37.127Z,101811.34
2019-01-04T14:14:44.098Z,101810.08
2019-01-04T14:18:52.341Z,101796.09
2019-01-04T14:22:59.352Z,101788.39
2019-01-04T14:27:07.671Z,101778.03
2019-01-04T14:31:16.180Z,101792.50
2019-01-04T14:35:23.211Z,101817.05
2019-01-04T14:39:31.446Z,101806.64
2019-01-04T14:43:39.371Z,101795.89
2019-01-04T14:47:46.479Z,101789.63
2019-01-04T14:51:53.377Z,101780.21
2019-01-04T14:56:00.406Z,101775.69
2019-01-04T15:00:10.843Z,101776.16
2019-01-04T15:04:18.383Z,101783.75
2019-01-04T15:08:25.564Z,101796.91
2019-01-04T15:12:32.725Z,101790.90
2019-01-04T15:16:39.658Z,101788.34
2019-01-04T15:20:46.526Z,101783.80
2019-01-04T15:24:56.956Z,101778.38
2019-01-04T15:29:03.845Z,101775.78
2019-01-04T15:33:10.871Z,101776.34
2019-01-04T15:37:17.970Z,101780.88
2019-01-04T15:41:24.865Z,101786.23
2019-01-04T15:45:32.429Z,101792.66
2019-01-04T15:49:40.287Z,101797.50
2019-01-04T15:53:47.190Z,101811.78
2019-01-04T15:57:54.064Z,101826.02
2019-01-04T16:02:01.096Z,101851.08
2019-01-04T16:06:12.590Z,101851.58
2019-01-04T16:10:16.958Z,101846.94
2019-01-04T16:14:23.919Z,101854.84
2019-01-04T16:18:30.797Z,101844.31
2019-01-04T16:22:38.780Z,101850.91
2019-01-04T16:26:45.766Z,101838.42
2019-01-04T16:30:53.103Z,101845.31
2019-01-04T16:35:03.146Z,101826.28
2019-01-04T16:39:15.122Z,101797.44
2019-01-04T16:43:22.227Z,101765.34
2019-01-04T16:47:29.771Z,101763.16
2019-01-04T16:51:36.718Z,101758.92
2019-01-04T16:55:45.456Z,101757.25
2019-01-04T16:59:52.705Z,101753.28
2019-01-04T17:03:59.661Z,101748.36
2019-01-04T17:08:06.743Z,101757.96
2019-01-04T17:12:13.808Z,101765.37
2019-01-04T17:16:20.867Z,101772.35
2019-01-04T17:20:28.424Z,101767.56
2019-01-04T17:24:35.247Z,101764.00
2019-01-04T17:28:42.119Z,101761.94
2019-01-04T17:32:49.041Z,101754.84
2019-01-04T17:36:55.973Z,101762.23
2019-01-04T17:41:04.162Z,101751.28
2019-01-04T17:45:11.202Z,101754.87
2019-01-04T17:49:20.655Z,101750.47
2019-01-04T17:53:27.732Z,101750.16
2019-01-04T17:57:34.938Z,101747.79
2019-01-04T18:01:41.948Z,101757.11
2019-01-04T18:05:49.061Z,101744.83
2019-01-04T18:09:56.174Z,101742.67
2019-01-04T18:14:03.039Z,101733.05
2019-01-04T18:18:10.149Z,101730.84
2019-01-04T18:22:17.272Z,101731.13
2019-01-04T18:26:26.676Z,101728.77
2019-01-04T18:30:35.071Z,101724.46
2019-01-04T18:34:43.321Z,101729.64
2019-01-04T18:38:50.984Z,101721.66
2019-01-04T18:42:59.834Z,101719.78
2019-01-04T18:47:08.221Z,101708.28
2019-01-04T18:51:15.346Z,101710.20
2019-01-04T18:55:23.719Z,101710.63
2019-01-04T18:59:30.958Z,101723.70
2019-01-04T19:03:38.057Z,101710.20
2019-01-04T19:07:45.477Z,101726.66
2019-01-04T19:11:52.751Z,101727.03
2019-01-04T19:16:00.181Z,101723.10
2019-01-04T19:20:08.011Z,101733.71
2019-01-04T19:24:15.460Z,101734.52
2019-01-04T19:28:22.756Z,101737.77
2019-01-04T19:32:30.140Z,101732.04
2019-01-04T19:36:38.287Z,101736.39
2019-01-04T19:40:46.986Z,101734.95
2019-01-04T19:44:55.372Z,101729.02
2019-01-04T19:49:02.779Z,101729.90
2019-01-04T19:53:12.971Z,101718.45
2019-01-04T19:57:29.290Z,101713.13
2019-01-04T20:01:36.802Z,101706.92
2019-01-04T20:06:41.778Z,101699.19
2019-01-04T20:12:26.476Z,101704.97
2019-01-04T20:17:00.521Z,101707.28
2019-01-04T20:21:38.968Z,101701.73
2019-01-04T20:26:05.551Z,101706.73
2019-01-04T20:30:31.497Z,101705.33
2019-01-04T20:34:59.433Z,101707.09
2019-01-04T20:39:22.743Z,101711.81
2019-01-04T20:44:07.038Z,101711.81
2019-01-04T20:48:37.198Z,101716.05
2019-01-04T20:52:54.839Z,101718.75
2019-01-04T20:57:19.901Z,101712.43
2019-01-04T21:01:48.727Z,101715.36
2019-01-04T21:06:17.863Z,101705.59
2019-01-04T21:10:43.801Z,101717.19
2019-01-04T21:15:12.949Z,101711.32
2019-01-04T21:19:51.132Z,101706.03
2019-01-04T21:24:18.759Z,101712.46
2019-01-04T21:28:43.420Z,101710.95
2019-01-04T21:33:24.607Z,101715.44
2019-01-04T21:37:55.177Z,101709.09
2019-01-04T21:42:24.190Z,101714.38
2019-01-04T21:46:56.851Z,101723.70
2019-01-04T21:51:20.600Z,101721.77
2019-01-04T21:55:46.515Z,101716.48
2019-01-04T22:00:21.216Z,101721.77
2019-01-04T22:04:45.791Z,101717.04
2019-01-04T22:09:23.478Z,101716.85
2019-01-04T22:13:48.115Z,101710.52
2019-01-04T22:18:30.270Z,101701.59
2019-01-04T22:23:08.434Z,101697.12
2019-01-04T22:27:43.402Z,101687.37
2019-01-04T22:32:19.887Z,101684.53
2019-01-04T22:36:44.296Z,101688.76
2019-01-04T22:41:19.563Z,101682.03
2019-01-04T22:45:52.564Z,101683.03
2019-01-04T22:50:27.522Z,101677.23
2019-01-04T22:54:55.510Z,101674.63
2019-01-04T22:59:19.918Z,101678.91
2019-01-04T23:03:44.983Z,101677.85
2019-01-04T23:08:10.004Z,101683.70
2019-01-04T23:12:38.030Z,101681.09
2019-01-04T23:17:03.963Z,101683.78
2019-01-04T23:22:15.405Z,101685.64
2019-01-04T23:26:47.403Z,101683.70
2019-01-04T23:31:13.353Z,101680.16
2019-01-04T23:35:38.654Z,101684.78
2019-01-04T23:40:03.383Z,101675.85
2019-01-04T23:44:34.288Z,101665.33
2019-01-04T23:49:12.277Z,101651.94
2019-01-04T23:53:36.851Z,101635.31
2019-01-04T23:58:21.755Z,101652.62
